createdAt,value
2018-03-17T00:01:27.635Z,10.33
2018-03-17T00:03:55.182Z,9.57
2018-03-17T00:06:22.752Z,11.50
2018-03-17T00:08:50.385Z,10.80
2018-03-17T00:11:19.418Z,12.17
2018-03-17T00:13:46.991Z,10.83
2018-03-17T00:16:14.554Z,10.80
2018-03-17T00:18:42.220Z,11.67
2018-03-17T00:21:09.770Z,12.53
2018-03-17T00:23:37.306Z,12.20
2018-03-17T00:26:04.993Z,13.53
2018-03-17T00:28:33.347Z,13.93
2018-03-17T00:31:00.917Z,13.50
2018-03-17T00:33:28.539Z,14.37
2018-03-17T00:35:56.093Z,14.83
2018-03-17T00:38:24.489Z,14.20
2018-03-17T00:40:52.049Z,14.37
2018-03-17T00:43:19.601Z,15.63
2018-03-17T00:45:47.659Z,15.40
2018-03-17T00:48:16.868Z,16.30
2018-03-17T00:50:44.767Z,15.60
2018-03-17T00:53:12.304Z,14.50
2018-03-17T00:55:40.249Z,15.40
2018-03-17T00:58:08.870Z,16.83
2018-03-17T01:00:36.650Z,16.37
2018-03-17T01:03:04.487Z,16.10
2018-03-17T01:05:32.430Z,17.93
2018-03-17T01:08:01.088Z,17.60
2018-03-17T01:10:28.846Z,17.43
2018-03-17T01:12:56.585Z,16.30
2018-03-17T01:15:24.138Z,16.50
2018-03-17T01:17:51.806Z,17.60
2018-03-17T01:20:19.380Z,16.47
2018-03-17T01:22:46.937Z,17.03
2018-03-17T01:25:14.503Z,17.50
2018-03-17T01:27:42.161Z,17.67
2018-03-17T01:30:09.711Z,17.90
2018-03-17T01:32:37.286Z,17.57
2018-03-17T01:35:04.832Z,17.73
2018-03-17T01:37:32.410Z,18.77
2018-03-17T01:39:59.966Z,17.47
2018-03-17T01:42:27.522Z,17.83
2018-03-17T01:44:55.080Z,16.83
2018-03-17T01:47:22.713Z,18.93
2018-03-17T01:49:50.278Z,17.97
2018-03-17T01:52:17.856Z,19.00
2018-03-17T01:54:45.396Z,17.43
2018-03-17T01:57:12.962Z,18.73
2018-03-17T01:59:40.521Z,18.47
2018-03-17T02:02:08.104Z,19.03
2018-03-17T02:04:35.658Z,18.30
2018-03-17T02:07:03.277Z,19.27
2018-03-17T02:09:31.587Z,19.13
2018-03-17T02:11:59.147Z,19.30
2018-03-17T02:14:26.709Z,19.33
2018-03-17T02:16:54.282Z,19.63
2018-03-17T02:19:21.854Z,18.60
2018-03-17T02:21:49.421Z,18.43
2018-03-17T02:24:17.021Z,19.13
2018-03-17T02:26:44.599Z,19.53
2018-03-17T02:29:12.145Z,21.13
2018-03-17T02:31:39.874Z,19.80
2018-03-17T02:34:07.437Z,19.77
2018-03-17T02:36:34.989Z,20.80
2018-03-17T02:39:02.538Z,20.30
2018-03-17T02:41:30.870Z,20.03
2018-03-17T02:43:58.448Z,21.13
2018-03-17T02:46:25.998Z,21.03
2018-03-17T02:48:53.660Z,22.33
2018-03-17T02:51:21.196Z,22.20
2018-03-17T02:53:48.766Z,21.23
2018-03-17T02:56:16.404Z,22.60
2018-03-17T02:58:43.889Z,23.43
2018-03-17T03:01:11.442Z,22.77
2018-03-17T03:03:39.023Z,23.63
2018-03-17T03:06:06.615Z,24.23
2018-03-17T03:08:34.162Z,25.70
2018-03-17T03:11:01.725Z,25.23
2018-03-17T03:13:29.269Z,23.03
2018-03-17T03:15:56.893Z,26.77
2018-03-17T03:18:25.212Z,25.60
2018-03-17T03:20:52.837Z,24.67
2018-03-17T03:23:20.389Z,24.93
2018-03-17T03:25:48.744Z,24.43
2018-03-17T03:28:16.352Z,25.37
2018-03-17T03:30:43.946Z,25.50
2018-03-17T03:33:11.508Z,24.13
2018-03-17T03:35:39.069Z,24.70
2018-03-17T03:38:06.620Z,23.83
2018-03-17T03:40:34.201Z,24.53
2018-03-17T03:43:01.916Z,25.47
2018-03-17T03:45:29.445Z,26.17
2018-03-17T03:47:57.780Z,26.30
2018-03-17T03:50:25.341Z,25.20
2018-03-17T03:52:52.905Z,24.27
2018-03-17T03:55:20.462Z,24.07
2018-03-17T03:57:48.034Z,25.10
2018-03-17T04:00:15.649Z,24.67
2018-03-17T04:02:43.232Z,25.30
2018-03-17T04:05:10.797Z,23.23
2018-03-17T04:07:38.417Z,23.70
2018-03-17T04:10:06.829Z,21.43
2018-03-17T04:12:34.401Z,22.17
2018-03-17T04:15:01.966Z,22.37
2018-03-17T04:17:29.660Z,21.20
2018-03-17T04:19:57.998Z,22.67
2018-03-17T04:22:25.573Z,21.63
2018-03-17T04:24:53.191Z,22.57
2018-03-17T04:27:20.942Z,21.80
2018-03-17T04:29:49.258Z,21.03
2018-03-17T04:32:16.798Z,19.47
2018-03-17T04:34:44.381Z,22.27
2018-03-17T04:37:11.952Z,19.47
2018-03-17T04:39:39.528Z,19.77
2018-03-17T04:42:07.089Z,20.13
2018-03-17T04:44:34.660Z,18.63
2018-03-17T04:47:02.986Z,19.80
2018-03-17T04:49:30.559Z,17.90
2018-03-17T04:51:58.102Z,19.57
2018-03-17T04:54:25.676Z,19.43
2018-03-17T04:56:53.234Z,19.70
2018-03-17T04:59:20.802Z,18.20
2018-03-17T05:01:48.368Z,18.20
2018-03-17T05:04:15.937Z,16.63
2018-03-17T05:06:43.489Z,19.43
2018-03-17T05:09:11.142Z,19.57
2018-03-17T05:11:38.697Z,18.37
2018-03-17T05:14:06.262Z,17.63
2018-03-17T05:16:33.823Z,16.37
2018-03-17T05:19:01.388Z,17.20
2018-03-17T05:21:28.936Z,16.37
2018-03-17T05:23:56.487Z,16.93
2018-03-17T05:26:24.068Z,16.13
2018-03-17T05:28:51.629Z,17.00
2018-03-17T05:31:19.216Z,15.30
2018-03-17T05:33:46.814Z,16.10
2018-03-17T05:36:15.340Z,16.60
2018-03-17T05:38:42.900Z,17.17
2018-03-17T05:41:10.640Z,16.53
2018-03-17T05:43:38.183Z,15.17
2018-03-17T05:46:05.753Z,15.87
2018-03-17T05:48:33.408Z,14.73
2018-03-17T05:51:00.985Z,14.57
2018-03-17T05:53:28.533Z,14.70
2018-03-17T05:55:56.093Z,14.30
2018-03-17T05:58:23.633Z,14.80
2018-03-17T06:00:51.210Z,14.60
2018-03-17T06:03:18.843Z,13.13
2018-03-17T06:05:47.283Z,15.50
2018-03-17T06:08:14.880Z,14.33
2018-03-17T06:10:43.209Z,14.23
2018-03-17T06:13:10.777Z,13.07
2018-03-17T06:15:38.324Z,13.30
2018-03-17T06:18:05.902Z,13.50
2018-03-17T06:20:34.958Z,12.53
2018-03-17T06:23:02.525Z,13.27
2018-03-17T06:25:30.081Z,12.73
2018-03-17T06:27:57.663Z,13.50
2018-03-17T06:30:25.233Z,11.90
2018-03-17T06:32:52.981Z,13.47
2018-03-17T06:35:20.538Z,12.43
2018-03-17T06:37:48.144Z,13.50
2018-03-17T06:40:16.490Z,12.80
2018-03-17T06:42:44.033Z,11.93
2018-03-17T06:45:11.605Z,11.50
2018-03-17T06:47:39.154Z,11.30
2018-03-17T06:50:06.772Z,11.50
2018-03-17T06:52:35.086Z,12.03
2018-03-17T06:55:02.650Z,12.10
2018-03-17T06:57:30.225Z,13.67
2018-03-17T06:59:57.798Z,12.63
2018-03-17T07:02:25.365Z,13.67
2018-03-17T07:04:53.089Z,14.13
2018-03-17T07:07:20.655Z,13.93
2018-03-17T07:09:49.112Z,13.13
2018-03-17T07:12:17.465Z,13.70
2018-03-17T07:14:44.973Z,14.43
2018-03-17T07:17:12.549Z,13.83
2018-03-17T07:19:40.101Z,13.23
2018-03-17T07:22:07.665Z,13.83
2018-03-17T07:24:35.365Z,14.40
2018-03-17T07:27:03.723Z,13.37
2018-03-17T07:29:31.369Z,11.83
2018-03-17T07:31:58.903Z,12.50
2018-03-17T07:34:26.443Z,11.83
2018-03-17T07:36:54.003Z,11.20
2018-03-17T07:39:21.533Z,11.83
2018-03-17T07:41:49.138Z,10.60
2018-03-17T07:44:16.724Z,11.67
2018-03-17T07:46:44.268Z,10.40
2018-03-17T07:49:11.808Z,10.33
2018-03-17T07:51:39.361Z,11.17
2018-03-17T07:54:06.903Z,11.13
2018-03-17T07:56:35.271Z,10.60
2018-03-17T07:59:02.820Z,11.87
2018-03-17T08:01:30.370Z,10.47
2018-03-17T08:03:57.935Z,10.73
2018-03-17T08:06:26.237Z,11.60
2018-03-17T08:08:54.572Z,11.40
2018-03-17T08:11:22.152Z,14.37
2018-03-17T08:13:49.796Z,10.23
2018-03-17T08:16:18.148Z,9.53
2018-03-17T08:18:45.691Z,10.80
2018-03-17T08:21:13.212Z,18.57
2018-03-17T08:23:40.763Z,9.00
2018-03-17T08:26:08.496Z,9.80
2018-03-17T08:28:36.869Z,9.00
2018-03-17T08:31:04.403Z,9.30
2018-03-17T08:33:32.707Z,9.53
2018-03-17T08:36:00.234Z,10.73
2018-03-17T08:38:28.592Z,9.53
2018-03-17T08:40:56.163Z,9.23
2018-03-17T08:43:23.715Z,8.90
2018-03-17T08:45:51.314Z,11.80
2018-03-17T08:48:18.890Z,9.33
2018-03-17T08:50:49.561Z,8.63
2018-03-17T08:53:17.134Z,8.50
2018-03-17T08:55:44.687Z,7.97
2018-03-17T08:58:12.246Z,9.57
2018-03-17T09:00:39.803Z,8.67
2018-03-17T09:03:07.378Z,8.57
2018-03-17T09:05:35.709Z,8.40
2018-03-17T09:08:03.267Z,7.83
2018-03-17T09:10:30.826Z,7.77
2018-03-17T09:12:58.629Z,8.07
2018-03-17T09:15:26.193Z,8.80
2018-03-17T09:17:53.811Z,8.93
2018-03-17T09:20:21.364Z,7.70
2018-03-17T09:22:49.021Z,7.47
2018-03-17T09:25:16.573Z,8.73
2018-03-17T09:27:44.129Z,7.87
2018-03-17T09:30:11.710Z,8.80
2018-03-17T09:32:39.423Z,8.40
2018-03-17T09:35:08.127Z,7.43
2018-03-17T09:37:38.945Z,8.00
2018-03-17T09:40:06.512Z,8.20
2018-03-17T09:42:34.082Z,8.33
2018-03-17T09:45:02.425Z,8.20
2018-03-17T09:47:29.988Z,8.50
2018-03-17T09:49:57.630Z,8.23
2018-03-17T09:52:25.177Z,8.10
2018-03-17T09:54:52.837Z,8.23
2018-03-17T09:57:20.433Z,7.40
2018-03-17T09:59:48.006Z,8.63
2018-03-17T10:02:15.549Z,8.30
2018-03-17T10:04:43.172Z,7.80
2018-03-17T10:07:10.786Z,7.57
2018-03-17T10:09:38.364Z,7.90
2018-03-17T10:12:06.676Z,7.70
2018-03-17T10:14:34.260Z,7.53
2018-03-17T10:17:01.825Z,7.53
2018-03-17T10:19:29.385Z,7.57
2018-03-17T10:21:57.019Z,7.73
2018-03-17T10:24:24.557Z,7.90
2018-03-17T10:26:52.118Z,7.77
2018-03-17T10:29:20.473Z,8.17
2018-03-17T10:31:48.794Z,7.30
2018-03-17T10:34:16.367Z,7.97
2018-03-17T10:36:43.934Z,7.60
2018-03-17T10:39:11.518Z,7.13
2018-03-17T10:41:39.075Z,7.20
2018-03-17T10:44:06.646Z,6.93
2018-03-17T10:46:34.286Z,7.30
2018-03-17T10:49:02.058Z,7.43
2018-03-17T10:51:29.618Z,7.07
2018-03-17T10:53:57.244Z,7.27
2018-03-17T10:56:24.801Z,7.63
2018-03-17T10:58:52.419Z,7.73
2018-03-17T11:01:20.859Z,7.23
2018-03-17T11:03:48.405Z,7.53
2018-03-17T11:06:17.376Z,7.77
2018-03-17T11:08:45.070Z,7.00
2018-03-17T11:11:12.636Z,6.97
2018-03-17T11:13:40.383Z,7.40
2018-03-17T11:16:07.968Z,7.00
2018-03-17T11:18:35.505Z,7.13
2018-03-17T11:21:03.045Z,6.60
2018-03-17T11:23:30.929Z,7.07
2018-03-17T11:25:58.531Z,7.03
2018-03-17T11:28:26.456Z,6.63
2018-03-17T11:30:53.953Z,7.10
2018-03-17T11:33:21.518Z,7.27
2018-03-17T11:35:49.089Z,7.20
2018-03-17T11:38:16.646Z,7.43
2018-03-17T11:40:44.257Z,7.10
2018-03-17T11:43:11.798Z,8.27
2018-03-17T11:45:40.202Z,8.63
2018-03-17T11:48:07.804Z,7.37
2018-03-17T11:50:35.357Z,6.73
2018-03-17T11:53:04.729Z,7.90
2018-03-17T11:55:32.296Z,6.83
2018-03-17T11:57:59.845Z,7.40
2018-03-17T12:00:27.422Z,7.20
2018-03-17T12:02:54.973Z,7.27
2018-03-17T12:05:22.895Z,7.00
2018-03-17T12:07:50.590Z,7.27
2018-03-17T12:10:18.161Z,7.40
2018-03-17T12:12:45.830Z,7.47
2018-03-17T12:15:13.482Z,7.60
2018-03-17T12:17:41.042Z,7.23
2018-03-17T12:20:08.684Z,7.70
2018-03-17T12:22:36.605Z,7.27
2018-03-17T12:25:04.285Z,7.43
2018-03-17T12:27:31.828Z,7.87
2018-03-17T12:29:59.531Z,7.63
2018-03-17T12:32:27.844Z,7.80
2018-03-17T12:34:55.420Z,7.83
2018-03-17T12:37:23.054Z,6.87
2018-03-17T12:39:50.606Z,7.40
2018-03-17T12:42:18.179Z,7.20
2018-03-17T12:44:45.748Z,7.93
2018-03-17T12:47:13.283Z,7.70
2018-03-17T12:49:40.834Z,7.67
2018-03-17T12:52:08.389Z,7.33
2018-03-17T12:54:35.965Z,7.50
2018-03-17T12:57:03.544Z,7.87
2018-03-17T12:59:31.099Z,7.80
2018-03-17T13:01:58.630Z,7.83
2018-03-17T13:04:26.224Z,8.07
2018-03-17T13:06:53.793Z,8.50
2018-03-17T13:09:21.359Z,7.80
2018-03-17T13:11:48.920Z,8.30
2018-03-17T13:14:16.530Z,8.20
2018-03-17T13:16:44.857Z,7.63
2018-03-17T13:19:24.342Z,7.70
2018-03-17T13:21:52.653Z,8.30
2018-03-17T13:24:20.260Z,7.60
2018-03-17T13:26:59.685Z,7.80
2018-03-17T13:29:27.246Z,8.50
2018-03-17T13:31:54.805Z,7.90
2018-03-17T13:34:22.373Z,7.57
2018-03-17T13:37:01.901Z,8.40
2018-03-17T13:39:29.499Z,8.47
2018-03-17T13:41:57.824Z,8.20
2018-03-17T13:44:25.501Z,8.37
2018-03-17T13:46:53.066Z,8.40
2018-03-17T13:49:20.676Z,8.53
2018-03-17T13:51:48.313Z,8.43
2018-03-17T13:54:15.922Z,8.23
2018-03-17T13:56:43.482Z,7.90
2018-03-17T13:59:11.026Z,8.70
2018-03-17T14:01:38.618Z,8.00
2018-03-17T14:04:06.189Z,8.50
2018-03-17T14:06:33.803Z,8.70
2018-03-17T14:09:01.344Z,8.63
2018-03-17T14:11:29.744Z,8.83
2018-03-17T14:13:57.258Z,8.73
2018-03-17T14:16:25.599Z,9.20
2018-03-17T14:18:53.149Z,8.37
2018-03-17T14:21:20.711Z,8.83
2018-03-17T14:23:48.357Z,8.30
2018-03-17T14:26:15.885Z,8.47
2018-03-17T14:28:43.416Z,8.10
2018-03-17T14:31:11.063Z,8.47
2018-03-17T14:33:38.708Z,8.50
2018-03-17T14:36:06.283Z,8.77
2018-03-17T14:38:33.829Z,8.60
2018-03-17T14:41:01.426Z,8.83
2018-03-17T14:43:29.050Z,8.20
2018-03-17T14:45:56.609Z,9.13
2018-03-17T14:48:24.173Z,8.43
2018-03-17T14:50:51.728Z,8.60
2018-03-17T14:53:19.319Z,9.07
2018-03-17T14:55:46.878Z,8.50
2018-03-17T14:58:14.437Z,8.20
2018-03-17T15:00:41.981Z,8.87
2018-03-17T15:03:09.548Z,8.77
2018-03-17T15:05:37.125Z,8.93
2018-03-17T15:08:04.718Z,8.53
2018-03-17T15:10:32.269Z,7.83
2018-03-17T15:12:59.974Z,8.80
2018-03-17T15:15:27.647Z,8.60
2018-03-17T15:17:55.194Z,8.37
2018-03-17T15:20:22.763Z,8.63
2018-03-17T15:22:50.347Z,9.50
2018-03-17T15:25:17.940Z,8.37
2018-03-17T15:27:45.466Z,8.60
2018-03-17T15:30:13.052Z,8.37
2018-03-17T15:32:40.611Z,8.60
2018-03-17T15:35:08.166Z,8.33
2018-03-17T15:37:35.738Z,8.40
2018-03-17T15:40:04.073Z,8.30
2018-03-17T15:42:31.645Z,8.53
2018-03-17T15:45:00.153Z,10.03
2018-03-17T15:47:28.553Z,8.80
2018-03-17T15:49:56.954Z,8.27
2018-03-17T15:52:24.514Z,8.50
2018-03-17T15:54:52.175Z,8.73
2018-03-17T15:57:20.039Z,8.27
2018-03-17T15:59:47.683Z,8.50
2018-03-17T16:02:15.265Z,8.80
2018-03-17T16:04:42.978Z,8.57
2018-03-17T16:07:11.415Z,8.23
2018-03-17T16:09:38.982Z,8.17
2018-03-17T16:12:06.577Z,7.80
2018-03-17T16:14:34.170Z,7.83
2018-03-17T16:17:02.543Z,8.70
2018-03-17T16:19:30.913Z,8.17
2018-03-17T16:21:59.243Z,8.77
2018-03-17T16:24:26.801Z,8.00
2018-03-17T16:26:54.387Z,7.93
2018-03-17T16:29:21.928Z,7.93
2018-03-17T16:31:49.506Z,8.43
2018-03-17T16:34:17.134Z,8.43
2018-03-17T16:36:44.791Z,8.47
2018-03-17T16:39:12.395Z,7.70
2018-03-17T16:41:39.970Z,8.27
2018-03-17T16:44:07.537Z,8.13
2018-03-17T16:46:35.999Z,8.60
2018-03-17T16:49:03.624Z,8.10
2018-03-17T16:51:31.223Z,8.00
2018-03-17T16:53:58.789Z,8.00
2018-03-17T16:56:26.354Z,8.97
2018-03-17T16:58:55.487Z,8.97
2018-03-17T17:01:23.209Z,8.47
2018-03-17T17:03:50.923Z,14.47
2018-03-17T17:06:18.578Z,8.07
2018-03-17T17:08:46.125Z,8.50
2018-03-17T17:11:13.855Z,8.70
2018-03-17T17:13:41.437Z,8.20
2018-03-17T17:16:09.753Z,8.57
2018-03-17T17:18:37.305Z,8.67
2018-03-17T17:21:04.885Z,8.50
2018-03-17T17:23:32.875Z,8.87
2018-03-17T17:26:00.422Z,8.00
2018-03-17T17:28:27.998Z,9.03
2018-03-17T17:30:55.582Z,8.60
2018-03-17T17:33:23.906Z,8.47
2018-03-17T17:35:51.503Z,8.70
2018-03-17T17:38:19.060Z,8.57
2018-03-17T17:40:46.661Z,8.23
2018-03-17T17:43:14.292Z,9.07
2018-03-17T17:45:41.849Z,8.83
2018-03-17T17:48:09.426Z,8.47
2018-03-17T17:50:37.828Z,8.23
2018-03-17T17:53:05.412Z,8.90
2018-03-17T17:55:32.989Z,8.80
2018-03-17T17:58:00.591Z,8.70
2018-03-17T18:00:28.930Z,8.60
2018-03-17T18:02:56.623Z,8.80
2018-03-17T18:05:24.982Z,8.67
2018-03-17T18:07:52.537Z,8.17
2018-03-17T18:10:21.606Z,9.60
2018-03-17T18:12:49.184Z,8.97
2018-03-17T18:15:16.733Z,8.93
2018-03-17T18:17:44.345Z,9.20
2018-03-17T18:20:12.671Z,9.30
2018-03-17T18:22:40.253Z,8.87
2018-03-17T18:25:07.866Z,8.43
2018-03-17T18:27:35.428Z,9.60
2018-03-17T18:30:02.996Z,9.30
2018-03-17T18:32:30.602Z,9.43
2018-03-17T18:34:58.213Z,9.20
2018-03-17T18:37:25.787Z,8.80
2018-03-17T18:39:53.377Z,8.90
2018-03-17T18:42:22.452Z,8.17
2018-03-17T18:44:50.178Z,9.10
2018-03-17T18:47:17.779Z,8.60
2018-03-17T18:49:45.341Z,8.67
2018-03-17T18:52:14.153Z,8.87
2018-03-17T18:54:41.765Z,8.87
2018-03-17T18:57:09.321Z,8.33
2018-03-17T18:59:37.321Z,7.93
2018-03-17T19:02:04.900Z,9.33
2018-03-17T19:04:32.467Z,9.00
2018-03-17T19:07:01.577Z,9.47
2018-03-17T19:09:29.906Z,8.77
2018-03-17T19:11:57.513Z,9.00
2018-03-17T19:14:25.883Z,9.13
2018-03-17T19:16:53.480Z,8.60
2018-03-17T19:19:21.058Z,9.40
2018-03-17T19:21:48.623Z,8.57
2018-03-17T19:24:16.219Z,9.10
2018-03-17T19:26:43.789Z,8.97
2018-03-17T19:29:12.132Z,8.77
2018-03-17T19:31:39.702Z,9.87
2018-03-17T19:34:07.320Z,12.13
2018-03-17T19:36:34.962Z,9.30
2018-03-17T19:39:03.266Z,9.03
2018-03-17T19:41:30.854Z,8.07
2018-03-17T19:43:58.441Z,9.07
2018-03-17T19:46:26.121Z,8.90
2018-03-17T19:48:54.442Z,8.80
2018-03-17T19:51:22.008Z,9.23
2018-03-17T19:53:49.605Z,8.37
2018-03-17T19:56:17.168Z,8.97
2018-03-17T19:58:45.552Z,9.27
2018-03-17T20:01:13.880Z,9.23
2018-03-17T20:03:41.451Z,9.17
2018-03-17T20:06:09.058Z,9.03
2018-03-17T20:08:37.420Z,9.20
2018-03-17T20:11:04.979Z,9.40
2018-03-17T20:13:32.557Z,9.07
2018-03-17T20:16:00.926Z,8.80
2018-03-17T20:18:28.496Z,8.80
2018-03-17T20:20:56.104Z,9.60
2018-03-17T20:23:23.693Z,8.97
2018-03-17T20:25:51.257Z,9.63
2018-03-17T20:28:18.826Z,9.20
2018-03-17T20:30:47.203Z,9.30
2018-03-17T20:33:15.564Z,11.13
2018-03-17T20:35:43.148Z,9.10
2018-03-17T20:38:11.477Z,9.27
2018-03-17T20:40:39.033Z,9.50
2018-03-17T20:43:06.619Z,9.90
2018-03-17T20:45:39.076Z,9.53
2018-03-17T20:48:06.646Z,9.23
2018-03-17T20:50:34.219Z,8.83
2018-03-17T20:53:01.809Z,9.67
2018-03-17T20:55:30.159Z,9.50
2018-03-17T20:57:57.735Z,10.00
2018-03-17T21:00:26.170Z,9.53
2018-03-17T21:02:53.815Z,8.90
2018-03-17T21:05:21.403Z,9.43
2018-03-17T21:07:48.986Z,8.97
2018-03-17T21:10:16.590Z,9.47
2018-03-17T21:12:44.173Z,9.33
2018-03-17T21:15:11.779Z,9.57
2018-03-17T21:17:39.354Z,9.53
2018-03-17T21:20:07.701Z,9.60
2018-03-17T21:22:35.366Z,9.13
2018-03-17T21:25:02.940Z,9.23
2018-03-17T21:27:31.280Z,8.87
2018-03-17T21:29:58.849Z,9.33
2018-03-17T21:32:26.436Z,9.90
2018-03-17T21:34:54.093Z,9.97
2018-03-17T21:37:21.798Z,10.13
2018-03-17T21:39:49.396Z,9.57
2018-03-17T21:42:16.958Z,9.17
2018-03-17T21:44:44.528Z,9.53
2018-03-17T21:47:12.130Z,9.63
2018-03-17T21:49:39.687Z,8.97
2018-03-17T21:52:07.255Z,9.10
2018-03-17T21:54:34.849Z,9.80
2018-03-17T21:57:02.410Z,9.43
2018-03-17T21:59:30.009Z,8.63
2018-03-17T22:01:58.470Z,9.80
2018-03-17T22:04:26.018Z,9.00
2018-03-17T22:06:53.561Z,9.23
2018-03-17T22:09:21.145Z,9.90
2018-03-17T22:11:50.213Z,9.13
2018-03-17T22:14:17.829Z,8.77
2018-03-17T22:16:45.345Z,9.17
2018-03-17T22:19:12.941Z,9.67
2018-03-17T22:21:41.269Z,9.40
2018-03-17T22:24:08.858Z,9.43
2018-03-17T22:26:37.188Z,9.20
2018-03-17T22:29:04.769Z,8.93
2018-03-17T22:31:32.330Z,8.93
2018-03-17T22:33:59.893Z,8.80
2018-03-17T22:36:27.494Z,9.60
2018-03-17T22:38:55.064Z,9.13
2018-03-17T22:41:23.418Z,8.60
2018-03-17T22:43:50.965Z,9.40
2018-03-17T22:46:18.549Z,9.20
2018-03-17T22:48:46.117Z,9.40
2018-03-17T22:51:13.680Z,9.77
2018-03-17T22:53:42.071Z,9.03
2018-03-17T22:56:10.461Z,9.27
2018-03-17T22:58:38.033Z,9.20
2018-03-17T23:01:05.595Z,9.47
2018-03-17T23:03:33.145Z,8.90
2018-03-17T23:06:00.724Z,9.17
2018-03-17T23:08:28.307Z,9.70
2018-03-17T23:10:55.882Z,9.70
2018-03-17T23:13:23.470Z,9.07
2018-03-17T23:15:51.018Z,8.73
2018-03-17T23:18:19.365Z,9.53
2018-03-17T23:20:46.951Z,9.73
2018-03-17T23:23:14.540Z,9.30
2018-03-17T23:25:42.132Z,10.00
2018-03-17T23:28:09.702Z,9.83
2018-03-17T23:30:37.357Z,9.87
2018-03-17T23:33:04.909Z,9.70
2018-03-17T23:35:32.467Z,9.97
2018-03-17T23:38:00.059Z,10.00
2018-03-17T23:40:27.636Z,10.03
2018-03-17T23:42:55.198Z,9.57
2018-03-17T23:45:22.757Z,9.60
2018-03-17T23:47:50.322Z,9.73
2018-03-17T23:50:18.661Z,10.27
2018-03-17T23:52:46.221Z,9.23
2018-03-17T23:55:13.792Z,10.13
2018-03-17T23:57:41.348Z,9.60
